Terminal Aerodrome Forecast
Issued by NWS Melbourne, FL

Home | Current Version | Previous Version | Text Only | Print | Product List | Glossary On
Versions: 1 2 3 4 5 6 7 8 9 10 11 12 13 14 15 16 17 18
932
FTUS42 KMLB 180525
TAFDAB
TAF
KDAB 180525Z 1806/1906 VRB03KT P6SM SKC
     FM180900 00000KT 3SM BR SCT003
      TEMPO 1810/1813 1/2SM FG BKN003
     FM181500 05006KT P6SM SCT030
     FM181800 05008KT P6SM SCT040
     FM190000 05004KT P6SM FEW035=

USA.gov is the U.S. government's official web portal to all federal, state and local government web resources and services.